createdAt,value
2022-10-12T00:02:04.414Z,20.40
2022-10-12T00:05:02.022Z,16.80
2022-10-12T00:07:59.056Z,17.80
2022-10-12T00:10:56.094Z,21.60
2022-10-12T00:13:53.044Z,15.80
2022-10-12T00:16:49.996Z,16.80
2022-10-12T00:19:47.002Z,20.40
2022-10-12T00:22:44.140Z,19.40
2022-10-12T00:25:41.491Z,10.60
2022-10-12T00:28:39.000Z,15.00
2022-10-12T00:31:36.346Z,15.00
2022-10-12T00:34:33.280Z,13.60
2022-10-12T00:37:29.842Z,13.60
2022-10-12T00:40:27.163Z,16.00
2022-10-12T00:43:37.965Z,14.60
2022-10-12T00:46:45.022Z,10.80
2022-10-12T00:49:42.110Z,14.20
2022-10-12T00:52:42.801Z,10.80
2022-10-12T00:55:43.677Z,10.60
2022-10-12T00:58:41.145Z,12.00
2022-10-12T01:01:38.081Z,3.40
2022-10-12T01:04:34.897Z,11.80
2022-10-12T01:07:32.193Z,13.00
2022-10-12T01:10:29.244Z,8.00
2022-10-12T01:13:26.266Z,9.40
2022-10-12T01:16:29.797Z,9.00
2022-10-12T01:19:45.267Z,8.00
2022-10-12T01:22:45.872Z,9.60
2022-10-12T01:25:52.228Z,8.00
2022-10-12T01:28:52.037Z,6.00
2022-10-12T01:32:06.818Z,9.00
2022-10-12T01:35:16.705Z,10.00
2022-10-12T01:38:34.424Z,7.80
2022-10-12T01:41:54.129Z,9.80
2022-10-12T01:44:51.197Z,7.60
2022-10-12T01:47:52.641Z,9.80
2022-10-12T01:50:51.425Z,8.00
2022-10-12T01:54:03.739Z,9.60
2022-10-12T01:57:06.461Z,8.60
2022-10-12T02:00:07.837Z,10.20
2022-10-12T02:03:20.873Z,8.80
2022-10-12T02:06:19.792Z,8.80
2022-10-12T02:09:26.352Z,6.00
2022-10-12T02:12:23.897Z,9.00
2022-10-12T02:15:21.236Z,10.40
2022-10-12T02:18:18.715Z,7.20
2022-10-12T02:21:18.094Z,7.60
2022-10-12T02:24:15.283Z,9.80
2022-10-12T02:27:12.517Z,8.40
2022-10-12T02:30:09.634Z,15.20
2022-10-12T02:33:14.761Z,10.40
2022-10-12T02:36:14.013Z,13.00
2022-10-12T02:39:17.097Z,16.60
2022-10-12T02:42:17.915Z,9.40
2022-10-12T02:45:15.410Z,14.00
2022-10-12T02:48:13.869Z,20.20
2022-10-12T02:51:11.490Z,17.40
2022-10-12T02:54:08.066Z,9.40
2022-10-12T02:57:05.081Z,13.20
2022-10-12T03:00:02.418Z,12.60
2022-10-12T03:02:59.421Z,9.40
2022-10-12T03:05:56.578Z,12.40
2022-10-12T03:08:56.060Z,12.40
2022-10-12T03:11:53.091Z,16.80
2022-10-12T03:14:50.236Z,15.80
2022-10-12T03:17:47.182Z,12.60
2022-10-12T03:20:48.607Z,11.60
2022-10-12T03:23:46.070Z,12.20
2022-10-12T03:26:43.320Z,13.80
2022-10-12T03:29:40.229Z,11.00
2022-10-12T03:32:38.097Z,17.00
2022-10-12T03:35:35.459Z,13.00
2022-10-12T03:38:31.955Z,13.00
2022-10-12T03:41:29.494Z,14.60
2022-10-12T03:44:26.580Z,13.00
2022-10-12T03:47:23.116Z,15.00
2022-10-12T03:50:20.110Z,12.80
2022-10-12T03:53:17.343Z,15.20
2022-10-12T03:56:14.492Z,12.60
2022-10-12T03:59:11.419Z,12.20
2022-10-12T04:02:08.164Z,13.40
2022-10-12T04:05:05.649Z,13.60
2022-10-12T04:08:02.021Z,12.20
2022-10-12T04:10:59.432Z,5.80
2022-10-12T04:13:56.194Z,10.80
2022-10-12T04:16:54.421Z,12.00
2022-10-12T04:19:51.201Z,16.60
2022-10-12T04:22:48.037Z,15.00
2022-10-12T04:25:45.519Z,14.00
2022-10-12T04:28:42.427Z,12.80
2022-10-12T04:31:39.141Z,12.00
2022-10-12T04:34:38.795Z,10.40
2022-10-12T04:37:36.407Z,5.60
2022-10-12T04:40:33.181Z,10.20
2022-10-12T04:43:30.470Z,13.00
2022-10-12T04:46:27.238Z,13.40
2022-10-12T04:49:24.163Z,12.80
2022-10-12T04:52:21.182Z,12.00
2022-10-12T04:55:17.962Z,14.40
2022-10-12T04:58:15.574Z,12.80
2022-10-12T05:01:12.727Z,15.80
2022-10-12T05:04:10.045Z,15.40
2022-10-12T05:07:07.505Z,15.60
2022-10-12T05:10:04.825Z,9.60
2022-10-12T05:13:02.468Z,11.60
2022-10-12T05:15:59.302Z,15.40
2022-10-12T05:18:56.148Z,18.80
2022-10-12T05:21:54.724Z,19.20
2022-10-12T05:24:53.916Z,18.00
2022-10-12T05:27:51.394Z,19.40
2022-10-12T05:30:51.963Z,14.40
2022-10-12T05:33:49.129Z,9.60
2022-10-12T05:36:46.691Z,10.20
2022-10-12T05:39:43.485Z,15.20
2022-10-12T05:42:40.657Z,13.00
2022-10-12T05:45:38.213Z,9.80
2022-10-12T05:48:34.985Z,12.00
2022-10-12T05:51:32.452Z,12.40
2022-10-12T05:54:29.130Z,11.40
2022-10-12T05:57:26.322Z,17.20
2022-10-12T06:00:22.973Z,11.40
2022-10-12T06:03:24.065Z,11.40
2022-10-12T06:06:23.575Z,12.00
2022-10-12T06:09:20.490Z,10.20
2022-10-12T06:12:17.240Z,14.00
2022-10-12T06:15:14.178Z,15.20
2022-10-12T06:18:11.566Z,12.80
2022-10-12T06:21:31.918Z,17.20
2022-10-12T06:24:25.297Z,13.20
2022-10-12T06:27:22.296Z,12.60
2022-10-12T06:30:19.247Z,13.60
2022-10-12T06:33:16.089Z,14.40
2022-10-12T06:36:13.623Z,15.60
2022-10-12T06:39:10.704Z,15.60
2022-10-12T06:42:08.799Z,18.60
2022-10-12T06:45:11.072Z,24.80
2022-10-12T06:48:08.453Z,26.00
2022-10-12T06:51:05.770Z,38.40
2022-10-12T06:54:03.405Z,36.40
2022-10-12T06:57:00.638Z,26.40
2022-10-12T06:59:57.401Z,21.20
2022-10-12T07:02:54.422Z,30.60
2022-10-12T07:05:51.287Z,23.40
2022-10-12T07:08:50.227Z,33.60
2022-10-12T07:11:47.636Z,23.00
2022-10-12T07:14:44.795Z,19.20
2022-10-12T07:17:42.254Z,20.00
2022-10-12T07:20:41.004Z,14.20
2022-10-12T07:23:42.481Z,20.40
2022-10-12T07:26:40.989Z,17.60
2022-10-12T07:29:38.738Z,14.80
2022-10-12T07:32:35.306Z,19.20
2022-10-12T07:35:32.153Z,20.60
2022-10-12T07:38:29.643Z,20.60
2022-10-12T07:41:27.544Z,18.00
2022-10-12T07:44:24.727Z,17.60
2022-10-12T07:47:21.809Z,15.80
2022-10-12T07:50:18.123Z,17.00
2022-10-12T07:53:15.670Z,17.20
2022-10-12T07:56:15.362Z,16.80
2022-10-12T07:59:12.298Z,14.80
2022-10-12T08:02:10.992Z,17.00
2022-10-12T08:05:08.682Z,21.20
2022-10-12T08:08:05.658Z,18.20
2022-10-12T08:11:02.560Z,22.00
2022-10-12T08:13:59.336Z,18.20
2022-10-12T08:16:56.589Z,17.40
2022-10-12T08:19:53.470Z,19.40
2022-10-12T08:22:50.561Z,18.40
2022-10-12T08:25:54.294Z,17.20
2022-10-12T08:28:51.405Z,16.80
2022-10-12T08:31:51.601Z,22.80
2022-10-12T08:34:48.331Z,24.00
2022-10-12T08:37:45.885Z,25.00
2022-10-12T08:40:56.664Z,19.00
2022-10-12T08:44:17.813Z,23.80
2022-10-12T08:47:25.657Z,20.40
2022-10-12T08:50:37.878Z,19.00
2022-10-12T08:53:40.175Z,21.40
2022-10-12T08:56:40.286Z,22.80
2022-10-12T08:59:37.320Z,19.20
2022-10-12T09:02:49.929Z,18.80
2022-10-12T09:06:11.873Z,19.40
2022-10-12T09:09:43.230Z,18.00
2022-10-12T09:12:55.501Z,15.40
2022-10-12T09:16:21.310Z,17.40
2022-10-12T09:19:37.446Z,17.00
2022-10-12T09:22:35.101Z,17.40
2022-10-12T09:25:32.582Z,15.20
2022-10-12T09:28:38.177Z,19.20
2022-10-12T09:32:00.459Z,16.40
2022-10-12T09:34:57.864Z,17.60
2022-10-12T09:37:54.566Z,15.00
2022-10-12T09:40:51.402Z,15.20
2022-10-12T09:43:53.853Z,16.40
2022-10-12T09:47:01.579Z,15.80
2022-10-12T09:50:02.972Z,12.60
2022-10-12T09:53:00.372Z,11.40
2022-10-12T09:56:09.702Z,16.20
2022-10-12T09:59:44.124Z,9.80
2022-10-12T10:02:48.694Z,7.00
2022-10-12T10:05:45.413Z,11.80
2022-10-12T10:08:44.406Z,7.80
2022-10-12T10:11:41.234Z,12.20
2022-10-12T10:14:38.529Z,11.80
2022-10-12T10:17:35.505Z,10.40
2022-10-12T10:20:34.440Z,9.00
2022-10-12T10:23:35.222Z,12.40
2022-10-12T10:26:58.188Z,6.00
2022-10-12T10:30:04.836Z,4.20
2022-10-12T10:33:17.357Z,5.40
2022-10-12T10:36:22.368Z,6.20
2022-10-12T10:39:24.990Z,6.80
2022-10-12T10:42:25.159Z,2.60
2022-10-12T10:45:31.829Z,5.60
2022-10-12T10:48:30.349Z,8.00
2022-10-12T10:51:40.930Z,6.40
2022-10-12T10:54:38.828Z,6.40
2022-10-12T10:57:35.759Z,4.40
2022-10-12T11:00:39.006Z,4.60
2022-10-12T11:04:11.682Z,4.40
2022-10-12T11:07:19.870Z,4.80
2022-10-12T11:10:42.140Z,5.00
2022-10-12T11:13:52.631Z,6.40
2022-10-12T11:17:02.162Z,4.25
2022-10-12T11:20:29.275Z,6.80
2022-10-12T11:23:47.101Z,18.00
2022-10-12T11:27:05.991Z,0.20
2022-10-12T11:30:11.384Z,13.50
2022-10-12T11:33:35.133Z,12.25
2022-10-12T11:36:33.711Z,2.40
2022-10-12T11:39:39.177Z,3.20
2022-10-12T11:42:43.418Z,11.40
2022-10-12T11:45:43.199Z,8.50
2022-10-12T11:48:56.547Z,5.50
2022-10-12T11:51:55.633Z,3.00
2022-10-12T11:55:27.709Z,3.25
2022-10-12T11:58:42.376Z,10.25
2022-10-12T12:01:45.750Z,4.60
2022-10-12T12:04:44.305Z,9.00
2022-10-12T12:07:50.853Z,6.60
2022-10-12T12:11:03.000Z,3.80
2022-10-12T12:14:21.351Z,4.80
2022-10-12T12:17:18.828Z,7.80
2022-10-12T12:20:44.477Z,4.60
2022-10-12T12:23:55.023Z,7.25
2022-10-12T12:26:52.513Z,11.50
2022-10-12T12:29:52.699Z,1.00
2022-10-12T12:33:00.816Z,3.00
2022-10-12T12:36:08.229Z,5.60
2022-10-12T12:39:07.074Z,7.20
2022-10-12T12:42:08.515Z,5.50
2022-10-12T12:45:38.937Z,10.60
2022-10-12T12:48:41.807Z,7.40
2022-10-12T12:51:40.819Z,3.20
2022-10-12T12:54:41.849Z,9.75
2022-10-12T12:57:45.194Z,4.80
2022-10-12T13:01:01.181Z,28.25
2022-10-12T13:04:07.439Z,22.00
2022-10-12T13:07:33.149Z,5.00
2022-10-12T13:10:39.943Z,4.80
2022-10-12T13:13:41.898Z,5.40
2022-10-12T13:20:17.680Z,5.40
2022-10-12T13:23:17.373Z,6.25
2022-10-12T13:26:18.062Z,26.50
2022-10-12T13:29:49.409Z,13.75
2022-10-12T13:33:13.508Z,11.50
2022-10-12T13:36:30.784Z,27.50
2022-10-12T13:39:27.779Z,27.00
2022-10-12T13:42:30.912Z,21.50
2022-10-12T13:45:28.485Z,20.75
2022-10-12T13:48:53.748Z,24.50
2022-10-12T13:51:43.962Z,10.75
2022-10-12T13:54:44.374Z,34.00
2022-10-12T13:57:42.891Z,24.50
2022-10-12T14:00:39.573Z,11.67
2022-10-12T14:03:41.822Z,23.25
2022-10-12T14:06:38.467Z,9.25
2022-10-12T14:09:44.505Z,32.00
2022-10-12T14:12:42.112Z,24.25
2022-10-12T14:15:39.907Z,16.00
2022-10-12T14:18:42.875Z,25.25
2022-10-12T14:21:39.751Z,33.00
2022-10-12T14:24:36.682Z,31.00
2022-10-12T14:27:34.111Z,25.00
2022-10-12T14:30:36.763Z,26.75
2022-10-12T14:33:33.866Z,39.25
2022-10-12T14:36:30.772Z,5.33
2022-10-12T14:39:27.694Z,20.50
2022-10-12T14:42:31.926Z,25.50
2022-10-12T14:45:28.980Z,20.25
2022-10-12T14:48:25.930Z,20.00
2022-10-12T14:51:22.724Z,21.00
2022-10-12T14:54:19.822Z,22.00
2022-10-12T14:57:17.151Z,31.50
2022-10-12T15:00:23.913Z,30.50
2022-10-12T15:03:20.741Z,34.75
2022-10-12T15:06:17.809Z,24.75
2022-10-12T15:09:14.725Z,29.00
2022-10-12T15:12:13.327Z,33.25
2022-10-12T15:15:31.490Z,24.25
2022-10-12T15:18:28.883Z,34.00
2022-10-12T15:21:25.801Z,11.67
2022-10-12T15:24:22.861Z,20.25
2022-10-12T15:27:19.869Z,29.75
2022-10-12T15:30:17.464Z,18.75
2022-10-12T15:33:14.764Z,21.00
2022-10-12T15:36:11.673Z,19.50
2022-10-12T15:39:09.054Z,24.50
2022-10-12T15:42:06.103Z,24.75
2022-10-12T15:45:03.001Z,25.25
2022-10-12T15:48:00.183Z,17.75
2022-10-12T15:50:58.114Z,24.25
2022-10-12T15:53:55.568Z,16.67
2022-10-12T15:56:52.825Z,16.50
2022-10-12T15:59:52.409Z,26.50
2022-10-12T16:02:50.123Z,27.00
2022-10-12T16:05:48.039Z,20.75
2022-10-12T16:08:44.818Z,5.75
2022-10-12T16:11:42.003Z,5.75
2022-10-12T16:14:38.796Z,9.60
2022-10-12T16:17:35.631Z,8.60
2022-10-12T16:20:33.310Z,10.60
2022-10-12T16:23:32.973Z,3.00
2022-10-12T16:26:29.920Z,6.00
2022-10-12T16:29:26.551Z,4.00
2022-10-12T16:32:24.191Z,1.00
2022-10-12T16:35:20.783Z,1.20
2022-10-12T16:38:20.119Z,5.00
2022-10-12T16:41:17.171Z,0.80
2022-10-12T16:44:13.840Z,1.00
2022-10-12T16:47:11.305Z,3.20
2022-10-12T16:50:09.091Z,4.40
2022-10-12T16:53:06.177Z,3.80
2022-10-12T16:56:03.294Z,4.20
2022-10-12T16:59:01.171Z,5.20
2022-10-12T17:01:59.426Z,3.80
2022-10-12T17:04:56.760Z,4.60
2022-10-12T17:07:53.865Z,4.80
2022-10-12T17:10:51.099Z,3.00
2022-10-12T17:13:49.301Z,7.20
2022-10-12T17:16:49.986Z,5.80
2022-10-12T17:19:47.277Z,5.00
2022-10-12T17:22:44.821Z,6.60
2022-10-12T17:25:43.971Z,4.20
2022-10-12T17:28:41.261Z,5.20
2022-10-12T17:31:39.312Z,6.00
2022-10-12T17:34:41.468Z,3.20
2022-10-12T17:37:39.110Z,4.00
2022-10-12T17:40:39.841Z,3.00
2022-10-12T17:43:36.926Z,4.20
2022-10-12T17:46:34.116Z,10.40
2022-10-12T17:49:31.011Z,12.80
2022-10-12T17:52:28.096Z,14.80
2022-10-12T17:55:43.866Z,21.40
2022-10-12T17:58:43.575Z,26.00
2022-10-12T18:01:40.953Z,29.20
2022-10-12T18:04:37.863Z,29.20
2022-10-12T18:07:36.059Z,23.40
2022-10-12T18:10:32.681Z,22.00
2022-10-12T18:13:30.332Z,20.60
2022-10-12T18:16:29.835Z,27.20
2022-10-12T18:19:27.375Z,28.00
2022-10-12T18:22:25.267Z,14.60
2022-10-12T18:25:22.391Z,12.80
2022-10-12T18:28:20.167Z,13.40
2022-10-12T18:31:20.664Z,21.60
2022-10-12T18:34:18.111Z,27.20
2022-10-12T18:37:15.151Z,24.00
2022-10-12T18:40:12.261Z,23.40
2022-10-12T18:43:08.822Z,23.40
2022-10-12T18:46:10.716Z,11.60
2022-10-12T18:49:08.437Z,16.20
2022-10-12T18:52:06.046Z,18.80
2022-10-12T18:55:03.003Z,18.80
2022-10-12T18:57:59.914Z,17.60
2022-10-12T19:00:57.019Z,15.20
2022-10-12T19:03:55.048Z,21.20
2022-10-12T19:06:56.910Z,24.80
2022-10-12T19:09:55.321Z,20.80
2022-10-12T19:12:51.860Z,20.20
2022-10-12T19:15:48.860Z,12.60
2022-10-12T19:18:45.837Z,13.80
2022-10-12T19:21:45.229Z,14.20
2022-10-12T19:24:42.158Z,7.60
2022-10-12T19:27:38.797Z,9.00
2022-10-12T19:30:39.434Z,15.80
2022-10-12T19:33:37.162Z,19.40
2022-10-12T19:36:34.409Z,18.80
2022-10-12T19:39:33.091Z,20.60
2022-10-12T19:42:29.639Z,19.00
2022-10-12T19:45:26.980Z,17.60
2022-10-12T19:48:24.077Z,16.00
2022-10-12T19:51:21.747Z,17.60
2022-10-12T19:54:19.718Z,16.40
2022-10-12T19:57:17.068Z,19.20
2022-10-12T20:00:14.795Z,17.40
2022-10-12T20:03:14.278Z,21.20
2022-10-12T20:06:11.104Z,17.40
2022-10-12T20:09:08.309Z,20.60
2022-10-12T20:12:06.177Z,16.40
2022-10-12T20:15:02.757Z,18.60
2022-10-12T20:18:00.184Z,19.80
2022-10-12T20:20:57.322Z,15.40
2022-10-12T20:23:53.956Z,18.60
2022-10-12T20:26:50.886Z,21.60
2022-10-12T20:29:48.020Z,15.20
2022-10-12T20:32:44.967Z,13.80
2022-10-12T20:35:48.552Z,16.00
2022-10-12T20:38:46.105Z,13.60
2022-10-12T20:41:43.024Z,18.80
2022-10-12T20:44:39.981Z,17.20
2022-10-12T20:47:36.780Z,15.60
2022-10-12T20:50:34.227Z,17.20
2022-10-12T20:53:31.537Z,17.20
2022-10-12T20:56:29.764Z,17.00
2022-10-12T20:59:26.948Z,17.00
2022-10-12T21:02:23.957Z,18.00
2022-10-12T21:05:20.987Z,16.80
2022-10-12T21:08:17.905Z,17.60
2022-10-12T21:11:15.177Z,16.80
2022-10-12T21:14:13.051Z,20.60
2022-10-12T21:17:10.277Z,19.80
2022-10-12T21:20:07.685Z,15.20
2022-10-12T21:23:05.265Z,17.80
2022-10-12T21:26:17.724Z,19.00
2022-10-12T21:29:15.078Z,20.40
2022-10-12T21:32:11.829Z,17.80
2022-10-12T21:35:09.190Z,19.00
2022-10-12T21:38:05.913Z,19.40
2022-10-12T21:41:03.391Z,17.00
2022-10-12T21:43:59.971Z,16.20
2022-10-12T21:46:58.284Z,18.40
2022-10-12T21:49:55.059Z,17.00
2022-10-12T21:52:55.470Z,22.60
2022-10-12T21:55:55.347Z,21.20
2022-10-12T21:58:52.544Z,20.60
2022-10-12T22:01:49.931Z,25.60
2022-10-12T22:04:47.099Z,18.40
2022-10-12T22:07:44.270Z,19.40
2022-10-12T22:10:43.163Z,22.40
2022-10-12T22:13:40.226Z,22.00
2022-10-12T22:16:37.066Z,20.80
2022-10-12T22:19:34.124Z,24.00
2022-10-12T22:22:31.322Z,26.80
2022-10-12T22:25:28.223Z,30.20
2022-10-12T22:28:24.964Z,23.40
2022-10-12T22:31:22.920Z,26.00
2022-10-12T22:34:20.460Z,26.20
2022-10-12T22:37:17.239Z,19.00
2022-10-12T22:40:14.325Z,22.40
2022-10-12T22:43:11.240Z,19.40
2022-10-12T22:46:08.150Z,27.80
2022-10-12T22:49:05.337Z,19.60
2022-10-12T22:52:02.359Z,23.20
2022-10-12T22:55:00.240Z,20.00
2022-10-12T22:57:57.124Z,20.60
2022-10-12T23:01:02.965Z,17.20
2022-10-12T23:04:02.591Z,23.60
2022-10-12T23:07:00.014Z,22.00
2022-10-12T23:09:57.309Z,14.60
2022-10-12T23:12:54.315Z,18.00
2022-10-12T23:15:51.160Z,19.00
2022-10-12T23:18:48.118Z,19.80
2022-10-12T23:21:45.018Z,15.80
2022-10-12T23:24:42.280Z,20.20
2022-10-12T23:27:39.236Z,23.20
2022-10-12T23:30:37.725Z,26.00
2022-10-12T23:33:35.382Z,19.00
2022-10-12T23:36:32.459Z,17.00
2022-10-12T23:39:29.383Z,21.60
2022-10-12T23:42:26.351Z,24.00
2022-10-12T23:45:24.397Z,26.60
2022-10-12T23:48:21.629Z,22.20
2022-10-12T23:51:19.444Z,22.00
2022-10-12T23:54:15.840Z,22.20
2022-10-12T23:57:34.342Z,26.80
